sensor_id;sensor_type;location;lat;lon;timestamp;P1;durP1;ratioP1;P2;durP2;ratioP2
27560;SDS011;15003;47.476;11.990;2022-07-18T00:01:27;4.80;;;3.70;;
27560;SDS011;15003;47.476;11.990;2022-07-18T00:03:53;5.55;;;4.00;;
27560;SDS011;15003;47.476;11.990;2022-07-18T00:06:19;3.40;;;3.10;;
27560;SDS011;15003;47.476;11.990;2022-07-18T00:08:45;4.40;;;3.20;;
27560;SDS011;15003;47.476;11.990;2022-07-18T00:11:11;5.40;;;3.50;;
27560;SDS011;15003;47.476;11.990;2022-07-18T00:13:37;5.28;;;3.55;;
27560;SDS011;15003;47.476;11.990;2022-07-18T00:16:03;4.82;;;3.72;;
27560;SDS011;15003;47.476;11.990;2022-07-18T00:18:29;6.35;;;3.30;;
27560;SDS011;15003;47.476;11.990;2022-07-18T00:20:55;3.42;;;3.13;;
27560;SDS011;15003;47.476;11.990;2022-07-18T00:23:21;5.32;;;3.33;;
27560;SDS011;15003;47.476;11.990;2022-07-18T00:25:46;4.47;;;3.25;;
27560;SDS011;15003;47.476;11.990;2022-07-18T00:28:12;4.75;;;3.15;;
27560;SDS011;15003;47.476;11.990;2022-07-18T00:30:38;4.82;;;3.50;;
27560;SDS011;15003;47.476;11.990;2022-07-18T00:33:05;4.60;;;3.35;;
27560;SDS011;15003;47.476;11.990;2022-07-18T00:35:31;4.13;;;2.92;;
27560;SDS011;15003;47.476;11.990;2022-07-18T00:37:57;3.78;;;3.40;;
27560;SDS011;15003;47.476;11.990;2022-07-18T00:40:23;3.35;;;2.90;;
27560;SDS011;15003;47.476;11.990;2022-07-18T00:42:49;5.80;;;3.53;;
27560;SDS011;15003;47.476;11.990;2022-07-18T00:45:15;4.35;;;3.40;;
27560;SDS011;15003;47.476;11.990;2022-07-18T00:47:41;4.85;;;3.97;;
27560;SDS011;15003;47.476;11.990;2022-07-18T00:50:07;4.80;;;3.63;;
27560;SDS011;15003;47.476;11.990;2022-07-18T00:52:34;4.05;;;3.65;;
27560;SDS011;15003;47.476;11.990;2022-07-18T00:55:00;4.72;;;3.38;;
27560;SDS011;15003;47.476;11.990;2022-07-18T00:57:27;4.70;;;3.70;;
27560;SDS011;15003;47.476;11.990;2022-07-18T00:59:53;4.07;;;3.67;;
27560;SDS011;15003;47.476;11.990;2022-07-18T01:02:19;4.70;;;3.50;;
27560;SDS011;15003;47.476;11.990;2022-07-18T01:04:45;6.05;;;3.95;;
27560;SDS011;15003;47.476;11.990;2022-07-18T01:07:10;3.65;;;3.35;;
27560;SDS011;15003;47.476;11.990;2022-07-18T01:09:36;4.90;;;3.90;;
27560;SDS011;15003;47.476;11.990;2022-07-18T01:12:02;4.22;;;3.30;;
27560;SDS011;15003;47.476;11.990;2022-07-18T01:14:30;6.07;;;3.80;;
27560;SDS011;15003;47.476;11.990;2022-07-18T01:16:56;4.45;;;3.70;;
27560;SDS011;15003;47.476;11.990;2022-07-18T01:19:22;4.88;;;3.50;;
27560;SDS011;15003;47.476;11.990;2022-07-18T01:21:47;4.05;;;3.65;;
27560;SDS011;15003;47.476;11.990;2022-07-18T01:24:13;4.47;;;4.07;;
27560;SDS011;15003;47.476;11.990;2022-07-18T01:26:39;3.80;;;3.42;;
27560;SDS011;15003;47.476;11.990;2022-07-18T01:29:04;5.22;;;3.63;;
27560;SDS011;15003;47.476;11.990;2022-07-18T01:31:30;4.30;;;3.50;;
27560;SDS011;15003;47.476;11.990;2022-07-18T01:33:56;4.25;;;3.40;;
27560;SDS011;15003;47.476;11.990;2022-07-18T01:36:22;4.15;;;3.75;;
27560;SDS011;15003;47.476;11.990;2022-07-18T01:38:47;5.70;;;3.80;;
27560;SDS011;15003;47.476;11.990;2022-07-18T01:41:13;4.43;;;3.90;;
27560;SDS011;15003;47.476;11.990;2022-07-18T01:43:40;4.10;;;3.63;;
27560;SDS011;15003;47.476;11.990;2022-07-18T01:46:08;4.05;;;3.65;;
27560;SDS011;15003;47.476;11.990;2022-07-18T01:48:36;5.72;;;3.78;;
27560;SDS011;15003;47.476;11.990;2022-07-18T01:51:03;5.82;;;4.00;;
27560;SDS011;15003;47.476;11.990;2022-07-18T01:53:29;5.13;;;3.70;;
27560;SDS011;15003;47.476;11.990;2022-07-18T01:55:55;5.35;;;3.55;;
27560;SDS011;15003;47.476;11.990;2022-07-18T01:58:21;4.43;;;3.53;;
27560;SDS011;15003;47.476;11.990;2022-07-18T02:00:46;6.88;;;4.35;;
27560;SDS011;15003;47.476;11.990;2022-07-18T02:03:12;3.63;;;3.33;;
27560;SDS011;15003;47.476;11.990;2022-07-18T02:05:38;4.95;;;3.35;;
27560;SDS011;15003;47.476;11.990;2022-07-18T02:08:04;5.20;;;3.88;;
27560;SDS011;15003;47.476;11.990;2022-07-18T02:10:30;4.82;;;3.55;;
27560;SDS011;15003;47.476;11.990;2022-07-18T02:12:56;3.80;;;3.20;;
27560;SDS011;15003;47.476;11.990;2022-07-18T02:15:21;6.07;;;3.83;;
27560;SDS011;15003;47.476;11.990;2022-07-18T02:17:47;3.92;;;3.20;;
27560;SDS011;15003;47.476;11.990;2022-07-18T02:20:14;5.10;;;3.47;;
27560;SDS011;15003;47.476;11.990;2022-07-18T02:22:40;3.47;;;3.15;;
27560;SDS011;15003;47.476;11.990;2022-07-18T02:25:06;6.30;;;3.65;;
27560;SDS011;15003;47.476;11.990;2022-07-18T02:27:33;3.25;;;2.95;;
27560;SDS011;15003;47.476;11.990;2022-07-18T02:29:59;3.45;;;3.15;;
27560;SDS011;15003;47.476;11.990;2022-07-18T02:32:24;5.15;;;2.95;;
27560;SDS011;15003;47.476;11.990;2022-07-18T02:34:50;3.35;;;3.05;;
27560;SDS011;15003;47.476;11.990;2022-07-18T02:37:16;5.22;;;3.05;;
27560;SDS011;15003;47.476;11.990;2022-07-18T02:39:42;2.85;;;2.60;;
27560;SDS011;15003;47.476;11.990;2022-07-18T02:42:08;3.30;;;2.80;;
27560;SDS011;15003;47.476;11.990;2022-07-18T02:44:34;4.28;;;3.30;;
27560;SDS011;15003;47.476;11.990;2022-07-18T02:47:00;2.90;;;2.70;;
27560;SDS011;15003;47.476;11.990;2022-07-18T02:49:26;4.07;;;3.20;;
27560;SDS011;15003;47.476;11.990;2022-07-18T02:52:25;3.80;;;3.40;;
27560;SDS011;15003;47.476;11.990;2022-07-18T02:54:44;3.38;;;2.50;;
27560;SDS011;15003;47.476;11.990;2022-07-18T02:57:10;4.35;;;3.33;;
27560;SDS011;15003;47.476;11.990;2022-07-18T02:59:36;5.10;;;3.05;;
27560;SDS011;15003;47.476;11.990;2022-07-18T03:02:01;5.00;;;3.30;;
27560;SDS011;15003;47.476;11.990;2022-07-18T03:04:27;4.38;;;3.15;;
27560;SDS011;15003;47.476;11.990;2022-07-18T03:06:53;3.58;;;3.20;;
27560;SDS011;15003;47.476;11.990;2022-07-18T03:09:19;4.30;;;3.10;;
27560;SDS011;15003;47.476;11.990;2022-07-18T03:11:45;4.80;;;3.53;;
27560;SDS011;15003;47.476;11.990;2022-07-18T03:14:11;3.72;;;3.00;;
27560;SDS011;15003;47.476;11.990;2022-07-18T03:16:37;5.47;;;4.10;;
27560;SDS011;15003;47.476;11.990;2022-07-18T03:19:03;4.95;;;3.50;;
27560;SDS011;15003;47.476;11.990;2022-07-18T03:21:29;5.05;;;3.70;;
27560;SDS011;15003;47.476;11.990;2022-07-18T03:23:55;3.72;;;3.25;;
27560;SDS011;15003;47.476;11.990;2022-07-18T03:26:21;4.35;;;3.40;;
27560;SDS011;15003;47.476;11.990;2022-07-18T03:28:47;4.40;;;3.65;;
27560;SDS011;15003;47.476;11.990;2022-07-18T03:31:13;3.80;;;3.40;;
27560;SDS011;15003;47.476;11.990;2022-07-18T03:33:39;3.55;;;3.25;;
27560;SDS011;15003;47.476;11.990;2022-07-18T03:36:04;5.20;;;3.40;;
27560;SDS011;15003;47.476;11.990;2022-07-18T03:38:30;4.45;;;3.42;;
27560;SDS011;15003;47.476;11.990;2022-07-18T03:40:56;5.45;;;3.58;;
27560;SDS011;15003;47.476;11.990;2022-07-18T03:43:22;4.65;;;3.47;;
27560;SDS011;15003;47.476;11.990;2022-07-18T03:45:48;3.80;;;3.40;;
27560;SDS011;15003;47.476;11.990;2022-07-18T03:48:14;4.28;;;3.05;;
27560;SDS011;15003;47.476;11.990;2022-07-18T03:50:39;4.90;;;3.97;;
27560;SDS011;15003;47.476;11.990;2022-07-18T03:53:05;4.13;;;3.50;;
27560;SDS011;15003;47.476;11.990;2022-07-18T03:55:31;4.10;;;3.60;;
27560;SDS011;15003;47.476;11.990;2022-07-18T03:57:57;4.28;;;3.80;;
27560;SDS011;15003;47.476;11.990;2022-07-18T04:00:23;4.50;;;3.60;;
27560;SDS011;15003;47.476;11.990;2022-07-18T04:02:49;4.30;;;3.67;;
27560;SDS011;15003;47.476;11.990;2022-07-18T04:05:14;5.95;;;4.15;;
27560;SDS011;15003;47.476;11.990;2022-07-18T04:07:41;5.03;;;3.60;;
27560;SDS011;15003;47.476;11.990;2022-07-18T04:10:07;4.40;;;3.88;;
27560;SDS011;15003;47.476;11.990;2022-07-18T04:12:34;4.53;;;3.78;;
27560;SDS011;15003;47.476;11.990;2022-07-18T04:15:12;6.53;;;4.15;;
27560;SDS011;15003;47.476;11.990;2022-07-18T04:17:38;3.83;;;3.47;;
27560;SDS011;15003;47.476;11.990;2022-07-18T04:20:04;4.57;;;4.00;;
27560;SDS011;15003;47.476;11.990;2022-07-18T04:22:30;4.93;;;3.45;;
27560;SDS011;15003;47.476;11.990;2022-07-18T04:24:56;4.90;;;3.38;;
27560;SDS011;15003;47.476;11.990;2022-07-18T04:27:21;4.05;;;3.53;;
27560;SDS011;15003;47.476;11.990;2022-07-18T04:29:47;5.03;;;3.78;;
27560;SDS011;15003;47.476;11.990;2022-07-18T04:32:14;4.43;;;4.00;;
27560;SDS011;15003;47.476;11.990;2022-07-18T04:34:40;5.72;;;4.30;;
27560;SDS011;15003;47.476;11.990;2022-07-18T04:37:05;4.72;;;4.25;;
27560;SDS011;15003;47.476;11.990;2022-07-18T04:39:31;6.20;;;4.40;;
27560;SDS011;15003;47.476;11.990;2022-07-18T04:41:57;4.68;;;4.05;;
27560;SDS011;15003;47.476;11.990;2022-07-18T04:44:22;4.88;;;3.88;;
27560;SDS011;15003;47.476;11.990;2022-07-18T04:46:48;5.40;;;3.47;;
27560;SDS011;15003;47.476;11.990;2022-07-18T04:49:14;4.45;;;4.05;;
27560;SDS011;15003;47.476;11.990;2022-07-18T04:51:40;5.90;;;4.28;;
27560;SDS011;15003;47.476;11.990;2022-07-18T04:54:05;5.75;;;4.18;;
27560;SDS011;15003;47.476;11.990;2022-07-18T04:56:31;4.35;;;3.95;;
27560;SDS011;15003;47.476;11.990;2022-07-18T04:58:57;5.00;;;3.97;;
27560;SDS011;15003;47.476;11.990;2022-07-18T05:01:23;4.70;;;3.50;;
27560;SDS011;15003;47.476;11.990;2022-07-18T05:03:48;3.85;;;3.30;;
27560;SDS011;15003;47.476;11.990;2022-07-18T05:06:14;4.53;;;4.03;;
27560;SDS011;15003;47.476;11.990;2022-07-18T05:08:40;5.90;;;4.18;;
27560;SDS011;15003;47.476;11.990;2022-07-18T05:11:06;3.83;;;3.42;;
27560;SDS011;15003;47.476;11.990;2022-07-18T05:13:32;5.22;;;3.83;;
27560;SDS011;15003;47.476;11.990;2022-07-18T05:15:58;4.07;;;3.63;;
27560;SDS011;15003;47.476;11.990;2022-07-18T05:18:23;4.30;;;3.60;;
27560;SDS011;15003;47.476;11.990;2022-07-18T05:20:49;4.10;;;3.50;;
27560;SDS011;15003;47.476;11.990;2022-07-18T05:23:15;4.07;;;3.40;;
27560;SDS011;15003;47.476;11.990;2022-07-18T05:25:41;5.65;;;3.45;;
27560;SDS011;15003;47.476;11.990;2022-07-18T05:28:07;3.88;;;3.33;;
27560;SDS011;15003;47.476;11.990;2022-07-18T05:30:33;5.00;;;3.40;;
27560;SDS011;15003;47.476;11.990;2022-07-18T05:32:58;4.03;;;3.60;;
27560;SDS011;15003;47.476;11.990;2022-07-18T05:35:24;4.03;;;3.33;;
27560;SDS011;15003;47.476;11.990;2022-07-18T05:37:50;4.57;;;3.30;;
27560;SDS011;15003;47.476;11.990;2022-07-18T05:40:16;3.85;;;3.45;;
27560;SDS011;15003;47.476;11.990;2022-07-18T05:42:42;3.65;;;3.08;;
27560;SDS011;15003;47.476;11.990;2022-07-18T05:45:08;4.72;;;3.13;;
27560;SDS011;15003;47.476;11.990;2022-07-18T05:47:35;3.42;;;3.13;;
27560;SDS011;15003;47.476;11.990;2022-07-18T05:50:02;4.30;;;3.22;;
27560;SDS011;15003;47.476;11.990;2022-07-18T05:52:29;5.63;;;3.88;;
27560;SDS011;15003;47.476;11.990;2022-07-18T05:54:54;4.43;;;3.75;;
27560;SDS011;15003;47.476;11.990;2022-07-18T05:57:20;6.63;;;3.97;;
27560;SDS011;15003;47.476;11.990;2022-07-18T05:59:46;6.05;;;3.85;;
27560;SDS011;15003;47.476;11.990;2022-07-18T06:02:12;4.30;;;3.88;;
27560;SDS011;15003;47.476;11.990;2022-07-18T06:04:37;4.10;;;3.47;;
27560;SDS011;15003;47.476;11.990;2022-07-18T06:07:03;4.70;;;3.78;;
27560;SDS011;15003;47.476;11.990;2022-07-18T06:09:29;4.20;;;3.67;;
27560;SDS011;15003;47.476;11.990;2022-07-18T06:11:55;6.05;;;4.22;;
27560;SDS011;15003;47.476;11.990;2022-07-18T06:14:23;4.57;;;3.88;;
27560;SDS011;15003;47.476;11.990;2022-07-18T06:16:49;4.80;;;3.90;;
27560;SDS011;15003;47.476;11.990;2022-07-18T06:19:14;6.65;;;4.20;;
27560;SDS011;15003;47.476;11.990;2022-07-18T06:21:40;5.88;;;4.18;;
27560;SDS011;15003;47.476;11.990;2022-07-18T06:24:06;4.40;;;3.35;;
27560;SDS011;15003;47.476;11.990;2022-07-18T06:26:32;5.55;;;3.65;;
27560;SDS011;15003;47.476;11.990;2022-07-18T06:28:57;5.57;;;4.10;;
27560;SDS011;15003;47.476;11.990;2022-07-18T06:31:23;4.20;;;3.38;;
27560;SDS011;15003;47.476;11.990;2022-07-18T06:33:49;5.00;;;4.22;;
27560;SDS011;15003;47.476;11.990;2022-07-18T06:36:15;4.20;;;3.80;;
27560;SDS011;15003;47.476;11.990;2022-07-18T06:38:40;4.40;;;3.20;;
27560;SDS011;15003;47.476;11.990;2022-07-18T06:41:06;4.13;;;3.65;;
27560;SDS011;15003;47.476;11.990;2022-07-18T06:43:32;4.18;;;3.60;;
27560;SDS011;15003;47.476;11.990;2022-07-18T06:45:58;6.03;;;3.78;;
27560;SDS011;15003;47.476;11.990;2022-07-18T06:48:24;4.82;;;3.45;;
27560;SDS011;15003;47.476;11.990;2022-07-18T06:50:50;3.92;;;3.50;;
27560;SDS011;15003;47.476;11.990;2022-07-18T06:53:16;5.93;;;3.67;;
27560;SDS011;15003;47.476;11.990;2022-07-18T06:55:42;5.10;;;3.95;;
27560;SDS011;15003;47.476;11.990;2022-07-18T06:58:07;5.00;;;3.78;;
27560;SDS011;15003;47.476;11.990;2022-07-18T07:00:33;4.53;;;4.05;;
27560;SDS011;15003;47.476;11.990;2022-07-18T07:02:59;4.07;;;3.60;;
27560;SDS011;15003;47.476;11.990;2022-07-18T07:05:24;4.32;;;3.92;;
27560;SDS011;15003;47.476;11.990;2022-07-18T07:07:50;4.85;;;3.90;;
27560;SDS011;15003;47.476;11.990;2022-07-18T07:10:16;4.28;;;3.88;;
27560;SDS011;15003;47.476;11.990;2022-07-18T07:12:44;3.97;;;3.58;;
27560;SDS011;15003;47.476;11.990;2022-07-18T07:15:15;4.00;;;3.60;;
27560;SDS011;15003;47.476;11.990;2022-07-18T07:17:44;5.05;;;4.03;;
27560;SDS011;15003;47.476;11.990;2022-07-18T07:20:10;4.00;;;3.60;;
27560;SDS011;15003;47.476;11.990;2022-07-18T07:22:43;4.72;;;4.22;;
27560;SDS011;15003;47.476;11.990;2022-07-18T07:25:10;4.47;;;3.83;;
27560;SDS011;15003;47.476;11.990;2022-07-18T07:27:37;5.97;;;3.80;;
27560;SDS011;15003;47.476;11.990;2022-07-18T07:30:03;4.70;;;4.18;;
27560;SDS011;15003;47.476;11.990;2022-07-18T07:32:33;4.70;;;3.38;;
27560;SDS011;15003;47.476;11.990;2022-07-18T07:35:01;4.35;;;3.30;;
27560;SDS011;15003;47.476;11.990;2022-07-18T07:37:28;4.30;;;3.90;;
27560;SDS011;15003;47.476;11.990;2022-07-18T07:39:55;7.22;;;3.90;;
27560;SDS011;15003;47.476;11.990;2022-07-18T07:42:21;4.20;;;3.80;;
27560;SDS011;15003;47.476;11.990;2022-07-18T07:44:46;6.03;;;4.15;;
27560;SDS011;15003;47.476;11.990;2022-07-18T07:47:12;4.60;;;4.05;;
27560;SDS011;15003;47.476;11.990;2022-07-18T07:49:38;4.57;;;3.88;;
27560;SDS011;15003;47.476;11.990;2022-07-18T07:52:04;7.30;;;4.45;;
27560;SDS011;15003;47.476;11.990;2022-07-18T07:54:29;4.10;;;3.70;;
27560;SDS011;15003;47.476;11.990;2022-07-18T07:56:55;6.30;;;4.50;;
27560;SDS011;15003;47.476;11.990;2022-07-18T07:59:21;6.40;;;5.80;;
27560;SDS011;15003;47.476;11.990;2022-07-18T08:01:47;6.10;;;4.63;;
27560;SDS011;15003;47.476;11.990;2022-07-18T08:04:12;9.80;;;5.50;;
27560;SDS011;15003;47.476;11.990;2022-07-18T08:06:38;10.07;;;6.45;;
27560;SDS011;15003;47.476;11.990;2022-07-18T08:09:04;9.35;;;7.53;;
27560;SDS011;15003;47.476;11.990;2022-07-18T08:11:29;7.63;;;6.55;;
27560;SDS011;15003;47.476;11.990;2022-07-18T08:13:55;10.95;;;7.32;;
27560;SDS011;15003;47.476;11.990;2022-07-18T08:16:21;7.28;;;6.32;;
27560;SDS011;15003;47.476;11.990;2022-07-18T08:18:47;7.80;;;5.97;;
27560;SDS011;15003;47.476;11.990;2022-07-18T08:21:13;8.48;;;6.25;;
27560;SDS011;15003;47.476;11.990;2022-07-18T08:23:38;5.63;;;5.07;;
27560;SDS011;15003;47.476;11.990;2022-07-18T08:26:04;5.43;;;4.90;;
27560;SDS011;15003;47.476;11.990;2022-07-18T08:28:30;6.47;;;5.28;;
27560;SDS011;15003;47.476;11.990;2022-07-18T08:30:56;5.05;;;4.50;;
27560;SDS011;15003;47.476;11.990;2022-07-18T08:33:21;7.93;;;6.28;;
27560;SDS011;15003;47.476;11.990;2022-07-18T08:35:47;7.93;;;5.15;;
27560;SDS011;15003;47.476;11.990;2022-07-18T08:38:13;7.03;;;4.93;;
27560;SDS011;15003;47.476;11.990;2022-07-18T08:40:39;8.20;;;5.05;;
27560;SDS011;15003;47.476;11.990;2022-07-18T08:43:05;7.07;;;5.55;;
27560;SDS011;15003;47.476;11.990;2022-07-18T08:45:30;6.72;;;5.38;;
27560;SDS011;15003;47.476;11.990;2022-07-18T08:47:56;7.55;;;5.55;;
27560;SDS011;15003;47.476;11.990;2022-07-18T08:50:23;8.88;;;5.97;;
27560;SDS011;15003;47.476;11.990;2022-07-18T08:52:49;6.82;;;5.38;;
27560;SDS011;15003;47.476;11.990;2022-07-18T08:55:15;7.88;;;4.57;;
27560;SDS011;15003;47.476;11.990;2022-07-18T08:57:41;5.72;;;4.35;;
27560;SDS011;15003;47.476;11.990;2022-07-18T09:00:08;4.80;;;4.07;;
27560;SDS011;15003;47.476;11.990;2022-07-18T09:02:35;6.82;;;4.13;;
27560;SDS011;15003;47.476;11.990;2022-07-18T09:05:02;4.40;;;4.00;;
27560;SDS011;15003;47.476;11.990;2022-07-18T09:07:30;3.90;;;3.55;;
27560;SDS011;15003;47.476;11.990;2022-07-18T09:09:58;3.85;;;3.45;;
27560;SDS011;15003;47.476;11.990;2022-07-18T09:12:26;3.38;;;3.08;;
27560;SDS011;15003;47.476;11.990;2022-07-18T09:14:53;4.47;;;3.33;;
27560;SDS011;15003;47.476;11.990;2022-07-18T09:17:21;3.40;;;3.10;;
27560;SDS011;15003;47.476;11.990;2022-07-18T09:22:34;4.70;;;3.38;;
27560;SDS011;15003;47.476;11.990;2022-07-18T09:27:40;3.47;;;3.17;;
27560;SDS011;15003;47.476;11.990;2022-07-18T09:35:33;4.15;;;3.20;;
27560;SDS011;15003;47.476;11.990;2022-07-18T09:38:10;3.17;;;2.80;;
27560;SDS011;15003;47.476;11.990;2022-07-18T09:40:40;3.53;;;3.00;;
27560;SDS011;15003;47.476;11.990;2022-07-18T09:43:11;4.05;;;3.67;;
27560;SDS011;15003;47.476;11.990;2022-07-18T09:45:44;4.40;;;3.30;;
27560;SDS011;15003;47.476;11.990;2022-07-18T09:48:19;4.90;;;3.15;;
27560;SDS011;15003;47.476;11.990;2022-07-18T09:55:49;4.60;;;3.20;;
27560;SDS011;15003;47.476;11.990;2022-07-18T09:58:19;4.63;;;3.70;;
27560;SDS011;15003;47.476;11.990;2022-07-18T10:00:50;4.00;;;3.60;;
27560;SDS011;15003;47.476;11.990;2022-07-18T10:03:19;3.75;;;3.20;;
27560;SDS011;15003;47.476;11.990;2022-07-18T10:05:47;4.18;;;2.90;;
27560;SDS011;15003;47.476;11.990;2022-07-18T10:08:18;3.72;;;2.88;;
27560;SDS011;15003;47.476;11.990;2022-07-18T10:10:51;2.90;;;2.55;;
27560;SDS011;15003;47.476;11.990;2022-07-18T10:13:19;2.78;;;2.42;;
27560;SDS011;15003;47.476;11.990;2022-07-18T10:15:47;4.75;;;2.45;;
27560;SDS011;15003;47.476;11.990;2022-07-18T10:18:15;2.30;;;2.10;;
27560;SDS011;15003;47.476;11.990;2022-07-18T10:20:47;3.55;;;2.05;;
27560;SDS011;15003;47.476;11.990;2022-07-18T10:23:29;2.50;;;2.30;;
27560;SDS011;15003;47.476;11.990;2022-07-18T10:33:53;2.92;;;2.20;;
27560;SDS011;15003;47.476;11.990;2022-07-18T10:36:32;2.20;;;2.00;;
27560;SDS011;15003;47.476;11.990;2022-07-18T10:57:28;2.92;;;1.90;;
27560;SDS011;15003;47.476;11.990;2022-07-18T11:02:35;5.55;;;2.17;;
27560;SDS011;15003;47.476;11.990;2022-07-18T11:23:45;1.98;;;1.30;;
27560;SDS011;15003;47.476;11.990;2022-07-18T11:26:14;1.77;;;1.67;;
27560;SDS011;15003;47.476;11.990;2022-07-18T11:28:45;1.55;;;1.45;;
27560;SDS011;15003;47.476;11.990;2022-07-18T11:31:12;1.40;;;1.30;;
27560;SDS011;15003;47.476;11.990;2022-07-18T11:33:40;1.23;;;1.13;;
27560;SDS011;15003;47.476;11.990;2022-07-18T11:36:12;1.40;;;1.30;;
27560;SDS011;15003;47.476;11.990;2022-07-18T11:38:49;1.50;;;1.40;;
27560;SDS011;15003;47.476;11.990;2022-07-18T11:41:16;2.90;;;1.60;;
27560;SDS011;15003;47.476;11.990;2022-07-18T11:43:43;3.05;;;1.52;;
27560;SDS011;15003;47.476;11.990;2022-07-18T11:46:11;1.52;;;1.42;;
27560;SDS011;15003;47.476;11.990;2022-07-18T11:48:39;1.73;;;1.63;;
27560;SDS011;15003;47.476;11.990;2022-07-18T11:51:10;1.90;;;1.70;;
27560;SDS011;15003;47.476;11.990;2022-07-18T11:53:44;1.80;;;1.70;;
27560;SDS011;15003;47.476;11.990;2022-07-18T11:56:16;2.40;;;1.55;;
27560;SDS011;15003;47.476;11.990;2022-07-18T11:58:44;2.05;;;1.60;;
27560;SDS011;15003;47.476;11.990;2022-07-18T12:01:12;2.47;;;1.80;;
27560;SDS011;15003;47.476;11.990;2022-07-18T12:03:45;1.67;;;1.52;;
27560;SDS011;15003;47.476;11.990;2022-07-18T12:06:21;2.20;;;1.65;;
27560;SDS011;15003;47.476;11.990;2022-07-18T12:08:48;1.50;;;1.40;;
27560;SDS011;15003;47.476;11.990;2022-07-18T12:13:56;2.63;;;1.50;;
27560;SDS011;15003;47.476;11.990;2022-07-18T12:32:44;1.77;;;1.63;;
27560;SDS011;15003;47.476;11.990;2022-07-18T12:35:22;1.55;;;1.45;;
27560;SDS011;15003;47.476;11.990;2022-07-18T12:38:08;2.65;;;1.83;;
27560;SDS011;15003;47.476;11.990;2022-07-18T12:43:16;1.50;;;1.40;;
27560;SDS011;15003;47.476;11.990;2022-07-18T12:45:52;1.95;;;1.60;;
27560;SDS011;15003;47.476;11.990;2022-07-18T12:48:20;1.65;;;1.55;;
27560;SDS011;15003;47.476;11.990;2022-07-18T12:50:53;3.97;;;2.08;;
27560;SDS011;15003;47.476;11.990;2022-07-18T12:53:28;2.47;;;1.80;;
27560;SDS011;15003;47.476;11.990;2022-07-18T12:55:58;1.77;;;1.67;;
27560;SDS011;15003;47.476;11.990;2022-07-18T12:58:24;3.30;;;1.70;;
27560;SDS011;15003;47.476;11.990;2022-07-18T13:00:49;2.85;;;1.60;;
27560;SDS011;15003;47.476;11.990;2022-07-18T13:03:15;2.25;;;1.45;;
27560;SDS011;15003;47.476;11.990;2022-07-18T13:05:42;1.75;;;1.60;;
27560;SDS011;15003;47.476;11.990;2022-07-18T13:08:08;1.65;;;1.55;;
27560;SDS011;15003;47.476;11.990;2022-07-18T13:10:34;1.98;;;1.73;;
27560;SDS011;15003;47.476;11.990;2022-07-18T13:13:01;2.10;;;1.75;;
27560;SDS011;15003;47.476;11.990;2022-07-18T13:15:28;1.52;;;1.42;;
27560;SDS011;15003;47.476;11.990;2022-07-18T13:17:55;4.95;;;1.60;;
27560;SDS011;15003;47.476;11.990;2022-07-18T13:20:21;1.52;;;1.42;;
27560;SDS011;15003;47.476;11.990;2022-07-18T13:22:47;1.65;;;1.55;;
27560;SDS011;15003;47.476;11.990;2022-07-18T13:25:13;1.83;;;1.52;;
27560;SDS011;15003;47.476;11.990;2022-07-18T13:27:39;1.70;;;1.60;;
27560;SDS011;15003;47.476;11.990;2022-07-18T13:30:05;1.65;;;1.30;;
27560;SDS011;15003;47.476;11.990;2022-07-18T13:32:33;3.38;;;1.50;;
27560;SDS011;15003;47.476;11.990;2022-07-18T13:35:00;2.22;;;1.75;;
27560;SDS011;15003;47.476;11.990;2022-07-18T13:37:25;3.20;;;1.38;;
27560;SDS011;15003;47.476;11.990;2022-07-18T13:39:51;1.67;;;1.30;;
27560;SDS011;15003;47.476;11.990;2022-07-18T13:42:17;2.53;;;1.38;;
27560;SDS011;15003;47.476;11.990;2022-07-18T13:44:44;2.05;;;1.60;;
27560;SDS011;15003;47.476;11.990;2022-07-18T13:47:10;2.88;;;1.65;;
27560;SDS011;15003;47.476;11.990;2022-07-18T13:49:37;1.58;;;1.40;;
27560;SDS011;15003;47.476;11.990;2022-07-18T13:52:03;1.55;;;1.45;;
27560;SDS011;15003;47.476;11.990;2022-07-18T13:54:29;1.58;;;1.40;;
27560;SDS011;15003;47.476;11.990;2022-07-18T13:56:55;1.70;;;1.60;;
27560;SDS011;15003;47.476;11.990;2022-07-18T13:59:21;1.33;;;1.23;;
27560;SDS011;15003;47.476;11.990;2022-07-18T14:01:47;1.70;;;1.60;;
27560;SDS011;15003;47.476;11.990;2022-07-18T14:04:12;1.80;;;1.58;;
27560;SDS011;15003;47.476;11.990;2022-07-18T14:06:38;3.55;;;1.67;;
27560;SDS011;15003;47.476;11.990;2022-07-18T14:09:04;2.72;;;1.50;;
27560;SDS011;15003;47.476;11.990;2022-07-18T14:11:31;1.65;;;1.42;;
27560;SDS011;15003;47.476;11.990;2022-07-18T14:13:57;1.73;;;1.40;;
27560;SDS011;15003;47.476;11.990;2022-07-18T14:16:25;1.50;;;1.40;;
27560;SDS011;15003;47.476;11.990;2022-07-18T14:18:50;4.07;;;1.45;;
27560;SDS011;15003;47.476;11.990;2022-07-18T14:21:16;2.38;;;1.60;;
27560;SDS011;15003;47.476;11.990;2022-07-18T14:23:42;1.90;;;1.63;;
27560;SDS011;15003;47.476;11.990;2022-07-18T14:26:07;3.83;;;1.58;;
27560;SDS011;15003;47.476;11.990;2022-07-18T14:28:33;2.42;;;1.40;;
27560;SDS011;15003;47.476;11.990;2022-07-18T14:30:59;1.50;;;1.40;;
27560;SDS011;15003;47.476;11.990;2022-07-18T14:33:25;2.20;;;1.42;;
27560;SDS011;15003;47.476;11.990;2022-07-18T14:35:51;1.65;;;1.40;;
27560;SDS011;15003;47.476;11.990;2022-07-18T14:38:16;1.73;;;1.25;;
27560;SDS011;15003;47.476;11.990;2022-07-18T14:40:43;1.70;;;1.55;;
27560;SDS011;15003;47.476;11.990;2022-07-18T14:43:09;1.67;;;1.58;;
27560;SDS011;15003;47.476;11.990;2022-07-18T14:45:35;2.38;;;1.60;;
27560;SDS011;15003;47.476;11.990;2022-07-18T14:48:01;1.73;;;1.50;;
27560;SDS011;15003;47.476;11.990;2022-07-18T14:50:26;1.92;;;1.50;;
27560;SDS011;15003;47.476;11.990;2022-07-18T14:52:52;1.77;;;1.40;;
27560;SDS011;15003;47.476;11.990;2022-07-18T14:55:18;1.85;;;1.67;;
27560;SDS011;15003;47.476;11.990;2022-07-18T14:57:44;1.13;;;1.05;;
27560;SDS011;15003;47.476;11.990;2022-07-18T15:00:10;1.60;;;1.30;;
27560;SDS011;15003;47.476;11.990;2022-07-18T15:02:36;2.05;;;1.50;;
27560;SDS011;15003;47.476;11.990;2022-07-18T15:05:04;1.45;;;1.35;;
27560;SDS011;15003;47.476;11.990;2022-07-18T15:07:30;1.42;;;1.20;;
27560;SDS011;15003;47.476;11.990;2022-07-18T15:09:56;1.52;;;1.42;;
27560;SDS011;15003;47.476;11.990;2022-07-18T15:12:21;3.13;;;1.20;;
27560;SDS011;15003;47.476;11.990;2022-07-18T15:14:47;1.83;;;1.42;;
27560;SDS011;15003;47.476;11.990;2022-07-18T15:17:13;1.90;;;1.23;;
27560;SDS011;15003;47.476;11.990;2022-07-18T15:19:39;1.90;;;1.40;;
27560;SDS011;15003;47.476;11.990;2022-07-18T15:22:04;1.50;;;1.40;;
27560;SDS011;15003;47.476;11.990;2022-07-18T15:24:31;1.92;;;1.30;;
27560;SDS011;15003;47.476;11.990;2022-07-18T15:26:58;1.60;;;1.50;;
27560;SDS011;15003;47.476;11.990;2022-07-18T15:29:25;1.90;;;1.38;;
27560;SDS011;15003;47.476;11.990;2022-07-18T15:31:51;1.13;;;1.10;;
27560;SDS011;15003;47.476;11.990;2022-07-18T15:34:17;1.40;;;1.30;;
27560;SDS011;15003;47.476;11.990;2022-07-18T15:36:44;1.35;;;1.23;;
27560;SDS011;15003;47.476;11.990;2022-07-18T15:39:10;2.17;;;1.40;;
27560;SDS011;15003;47.476;11.990;2022-07-18T15:41:36;1.95;;;1.40;;
27560;SDS011;15003;47.476;11.990;2022-07-18T15:44:02;1.23;;;1.13;;
27560;SDS011;15003;47.476;11.990;2022-07-18T15:46:28;1.50;;;1.40;;
27560;SDS011;15003;47.476;11.990;2022-07-18T15:48:54;1.88;;;1.40;;
27560;SDS011;15003;47.476;11.990;2022-07-18T15:51:19;3.15;;;1.25;;
27560;SDS011;15003;47.476;11.990;2022-07-18T15:53:45;1.88;;;1.30;;
27560;SDS011;15003;47.476;11.990;2022-07-18T15:56:11;2.00;;;1.45;;